sensor_id;sensor_type;location;lat;lon;timestamp;pressure;altitude;pressure_sealevel;temperature;humidity
3960;BME280;1994;48.640;8.894;2023-07-30T00:02:18;95791.91;;;19.56;100.00
3960;BME280;1994;48.640;8.894;2023-07-30T00:04:45;95793.22;;;19.45;100.00
3960;BME280;1994;48.640;8.894;2023-07-30T00:07:11;95795.53;;;19.33;100.00
3960;BME280;1994;48.640;8.894;2023-07-30T00:09:38;95786.47;;;19.39;100.00
3960;BME280;1994;48.640;8.894;2023-07-30T00:12:06;95789.09;;;19.39;100.00
3960;BME280;1994;48.640;8.894;2023-07-30T00:14:32;95786.63;;;19.34;100.00
3960;BME280;1994;48.640;8.894;2023-07-30T00:16:57;95786.13;;;19.32;100.00
3960;BME280;1994;48.640;8.894;2023-07-30T00:19:23;95795.97;;;19.13;100.00
3960;BME280;1994;48.640;8.894;2023-07-30T00:21:49;95790.53;;;19.23;100.00
3960;BME280;1994;48.640;8.894;2023-07-30T00:24:15;95800.44;;;19.26;100.00
3960;BME280;1994;48.640;8.894;2023-07-30T00:26:40;95800.63;;;19.16;100.00
3960;BME280;1994;48.640;8.894;2023-07-30T00:29:06;95808.38;;;19.21;100.00
3960;BME280;1994;48.640;8.894;2023-07-30T00:31:32;95803.34;;;19.24;100.00
3960;BME280;1994;48.640;8.894;2023-07-30T00:33:57;95801.88;;;19.32;100.00
3960;BME280;1994;48.640;8.894;2023-07-30T00:36:23;95802.84;;;19.36;100.00
3960;BME280;1994;48.640;8.894;2023-07-30T00:38:49;95808.56;;;19.38;100.00
3960;BME280;1994;48.640;8.894;2023-07-30T00:41:15;95810.13;;;19.39;100.00
3960;BME280;1994;48.640;8.894;2023-07-30T00:43:40;95810.03;;;19.17;100.00
3960;BME280;1994;48.640;8.894;2023-07-30T00:46:06;95806.47;;;19.13;100.00
3960;BME280;1994;48.640;8.894;2023-07-30T00:48:32;95806.84;;;19.20;100.00
3960;BME280;1994;48.640;8.894;2023-07-30T00:50:59;95807.66;;;19.07;100.00
3960;BME280;1994;48.640;8.894;2023-07-30T00:53:26;95814.66;;;18.98;100.00
3960;BME280;1994;48.640;8.894;2023-07-30T00:55:53;95810.94;;;19.12;100.00
3960;BME280;1994;48.640;8.894;2023-07-30T00:58:19;95816.09;;;19.04;100.00
3960;BME280;1994;48.640;8.894;2023-07-30T01:00:46;95825.13;;;19.11;100.00
3960;BME280;1994;48.640;8.894;2023-07-30T01:03:12;95814.25;;;19.18;100.00
3960;BME280;1994;48.640;8.894;2023-07-30T01:05:38;95810.16;;;19.12;100.00
3960;BME280;1994;48.640;8.894;2023-07-30T01:08:04;95819.91;;;18.98;100.00
3960;BME280;1994;48.640;8.894;2023-07-30T01:10:32;95822.03;;;18.96;100.00
3960;BME280;1994;48.640;8.894;2023-07-30T01:13:02;95810.94;;;18.99;100.00
3960;BME280;1994;48.640;8.894;2023-07-30T01:15:29;95811.81;;;19.08;100.00
3960;BME280;1994;48.640;8.894;2023-07-30T01:17:55;95813.28;;;19.14;100.00
3960;BME280;1994;48.640;8.894;2023-07-30T01:20:22;95812.13;;;18.93;100.00
3960;BME280;1994;48.640;8.894;2023-07-30T01:22:48;95823.00;;;18.73;100.00
3960;BME280;1994;48.640;8.894;2023-07-30T01:25:16;95827.47;;;18.59;100.00
3960;BME280;1994;48.640;8.894;2023-07-30T01:27:51;95832.31;;;18.52;100.00
3960;BME280;1994;48.640;8.894;2023-07-30T01:30:29;95819.88;;;18.44;100.00
3960;BME280;1994;48.640;8.894;2023-07-30T01:32:56;95835.81;;;18.29;100.00
3960;BME280;1994;48.640;8.894;2023-07-30T01:35:26;95835.78;;;18.34;100.00
3960;BME280;1994;48.640;8.894;2023-07-30T01:37:53;95834.06;;;18.43;100.00
3960;BME280;1994;48.640;8.894;2023-07-30T01:40:21;95836.75;;;18.38;100.00
3960;BME280;1994;48.640;8.894;2023-07-30T01:42:48;95843.56;;;18.39;100.00
3960;BME280;1994;48.640;8.894;2023-07-30T01:45:14;95841.59;;;18.31;100.00
3960;BME280;1994;48.640;8.894;2023-07-30T01:47:40;95839.41;;;18.19;100.00
3960;BME280;1994;48.640;8.894;2023-07-30T01:50:06;95834.16;;;18.19;100.00
3960;BME280;1994;48.640;8.894;2023-07-30T01:52:32;95835.28;;;18.32;100.00
3960;BME280;1994;48.640;8.894;2023-07-30T01:54:57;95845.84;;;18.27;100.00
3960;BME280;1994;48.640;8.894;2023-07-30T01:57:24;95839.59;;;18.23;100.00
3960;BME280;1994;48.640;8.894;2023-07-30T01:59:50;95834.00;;;18.29;100.00
3960;BME280;1994;48.640;8.894;2023-07-30T02:02:16;95835.09;;;18.10;100.00
3960;BME280;1994;48.640;8.894;2023-07-30T02:04:41;95830.44;;;18.07;100.00
3960;BME280;1994;48.640;8.894;2023-07-30T02:07:07;95829.88;;;18.10;100.00
3960;BME280;1994;48.640;8.894;2023-07-30T02:09:33;95823.63;;;18.06;100.00
3960;BME280;1994;48.640;8.894;2023-07-30T02:11:59;95819.81;;;17.98;100.00
3960;BME280;1994;48.640;8.894;2023-07-30T02:14:25;95821.50;;;18.08;100.00
3960;BME280;1994;48.640;8.894;2023-07-30T02:16:51;95823.06;;;18.09;100.00
3960;BME280;1994;48.640;8.894;2023-07-30T02:19:16;95835.66;;;18.07;100.00
3960;BME280;1994;48.640;8.894;2023-07-30T02:21:42;95832.16;;;17.98;100.00
3960;BME280;1994;48.640;8.894;2023-07-30T02:24:11;95831.53;;;17.87;100.00
3960;BME280;1994;48.640;8.894;2023-07-30T02:26:38;95824.38;;;17.93;100.00
3960;BME280;1994;48.640;8.894;2023-07-30T02:29:04;95830.69;;;17.92;100.00
3960;BME280;1994;48.640;8.894;2023-07-30T02:31:31;95836.00;;;17.87;100.00
3960;BME280;1994;48.640;8.894;2023-07-30T02:33:57;95834.84;;;17.93;100.00
3960;BME280;1994;48.640;8.894;2023-07-30T02:36:23;95834.28;;;17.96;100.00
3960;BME280;1994;48.640;8.894;2023-07-30T02:38:49;95825.72;;;17.90;100.00
3960;BME280;1994;48.640;8.894;2023-07-30T02:41:16;95836.41;;;17.94;100.00
3960;BME280;1994;48.640;8.894;2023-07-30T02:43:42;95837.22;;;18.08;100.00
3960;BME280;1994;48.640;8.894;2023-07-30T02:46:07;95840.91;;;18.07;100.00
3960;BME280;1994;48.640;8.894;2023-07-30T02:48:33;95834.84;;;17.93;100.00
3960;BME280;1994;48.640;8.894;2023-07-30T02:50:59;95831.16;;;17.94;100.00
3960;BME280;1994;48.640;8.894;2023-07-30T02:53:25;95836.97;;;17.91;100.00
3960;BME280;1994;48.640;8.894;2023-07-30T02:55:51;95832.94;;;17.98;100.00
3960;BME280;1994;48.640;8.894;2023-07-30T02:58:16;95842.84;;;18.01;100.00
3960;BME280;1994;48.640;8.894;2023-07-30T03:00:42;95834.13;;;18.06;100.00
3960;BME280;1994;48.640;8.894;2023-07-30T03:03:08;95837.72;;;18.10;100.00
3960;BME280;1994;48.640;8.894;2023-07-30T03:05:34;95840.34;;;18.10;100.00
3960;BME280;1994;48.640;8.894;2023-07-30T03:07:59;95840.28;;;18.15;100.00
3960;BME280;1994;48.640;8.894;2023-07-30T03:10:25;95837.56;;;18.20;100.00
3960;BME280;1994;48.640;8.894;2023-07-30T03:12:51;95834.34;;;18.23;100.00
3960;BME280;1994;48.640;8.894;2023-07-30T03:15:17;95835.34;;;18.27;100.00
3960;BME280;1994;48.640;8.894;2023-07-30T03:17:42;95833.19;;;18.29;100.00
3960;BME280;1994;48.640;8.894;2023-07-30T03:20:09;95832.88;;;18.35;100.00
3960;BME280;1994;48.640;8.894;2023-07-30T03:22:35;95831.50;;;18.38;100.00
3960;BME280;1994;48.640;8.894;2023-07-30T03:25:00;95829.97;;;18.37;100.00
3960;BME280;1994;48.640;8.894;2023-07-30T03:27:26;95824.63;;;18.42;100.00
3960;BME280;1994;48.640;8.894;2023-07-30T03:29:52;95841.84;;;18.48;100.00
3960;BME280;1994;48.640;8.894;2023-07-30T03:32:18;95837.16;;;18.45;100.00
3960;BME280;1994;48.640;8.894;2023-07-30T03:34:43;95829.19;;;18.50;100.00
3960;BME280;1994;48.640;8.894;2023-07-30T03:37:09;95836.97;;;18.55;100.00
3960;BME280;1994;48.640;8.894;2023-07-30T03:39:35;95840.09;;;18.57;100.00
3960;BME280;1994;48.640;8.894;2023-07-30T03:42:01;95845.44;;;18.52;100.00
3960;BME280;1994;48.640;8.894;2023-07-30T03:44:27;95851.34;;;18.44;100.00
3960;BME280;1994;48.640;8.894;2023-07-30T03:46:53;95856.75;;;18.34;100.00
3960;BME280;1994;48.640;8.894;2023-07-30T03:49:18;95851.28;;;18.30;100.00
3960;BME280;1994;48.640;8.894;2023-07-30T03:51:44;95853.56;;;18.37;100.00
3960;BME280;1994;48.640;8.894;2023-07-30T03:54:10;95863.53;;;18.35;100.00
3960;BME280;1994;48.640;8.894;2023-07-30T03:56:36;95873.47;;;18.38;100.00
3960;BME280;1994;48.640;8.894;2023-07-30T03:59:01;95866.00;;;18.45;100.00
3960;BME280;1994;48.640;8.894;2023-07-30T04:01:27;95863.38;;;18.45;100.00
3960;BME280;1994;48.640;8.894;2023-07-30T04:03:54;95861.75;;;18.49;100.00
3960;BME280;1994;48.640;8.894;2023-07-30T04:06:20;95861.66;;;18.54;100.00
3960;BME280;1994;48.640;8.894;2023-07-30T04:08:46;95864.19;;;18.59;100.00
3960;BME280;1994;48.640;8.894;2023-07-30T04:11:12;95862.72;;;18.53;100.00
3960;BME280;1994;48.640;8.894;2023-07-30T04:13:37;95869.06;;;18.52;100.00
3960;BME280;1994;48.640;8.894;2023-07-30T04:16:03;95862.69;;;18.39;100.00
3960;BME280;1994;48.640;8.894;2023-07-30T04:18:29;95868.78;;;18.35;100.00
3960;BME280;1994;48.640;8.894;2023-07-30T04:20:55;95872.47;;;18.34;100.00
3960;BME280;1994;48.640;8.894;2023-07-30T04:23:21;95875.63;;;18.36;100.00
3960;BME280;1994;48.640;8.894;2023-07-30T04:25:49;95875.63;;;18.36;100.00
3960;BME280;1994;48.640;8.894;2023-07-30T04:28:16;95880.28;;;18.39;100.00
3960;BME280;1994;48.640;8.894;2023-07-30T04:30:42;95885.59;;;18.34;100.00
3960;BME280;1994;48.640;8.894;2023-07-30T04:33:08;95880.88;;;18.36;100.00
3960;BME280;1994;48.640;8.894;2023-07-30T04:35:33;95889.00;;;18.34;100.00
3960;BME280;1994;48.640;8.894;2023-07-30T04:37:59;95885.88;;;18.32;100.00
3960;BME280;1994;48.640;8.894;2023-07-30T04:40:25;95888.72;;;18.36;100.00
3960;BME280;1994;48.640;8.894;2023-07-30T04:42:51;95893.03;;;18.27;100.00
3960;BME280;1994;48.640;8.894;2023-07-30T04:45:17;95893.97;;;18.36;100.00
3960;BME280;1994;48.640;8.894;2023-07-30T04:47:42;95891.91;;;18.33;100.00
3960;BME280;1994;48.640;8.894;2023-07-30T04:50:08;95892.03;;;18.23;100.00
3960;BME280;1994;48.640;8.894;2023-07-30T04:52:34;95891.28;;;18.22;100.00
3960;BME280;1994;48.640;8.894;2023-07-30T04:55:00;95897.28;;;18.23;100.00
3960;BME280;1994;48.640;8.894;2023-07-30T04:57:26;95899.78;;;18.33;100.00
3960;BME280;1994;48.640;8.894;2023-07-30T04:59:52;95920.09;;;18.41;100.00
3960;BME280;1994;48.640;8.894;2023-07-30T05:02:18;95910.78;;;18.30;100.00
3960;BME280;1994;48.640;8.894;2023-07-30T05:04:44;95917.97;;;18.43;100.00
3960;BME280;1994;48.640;8.894;2023-07-30T05:07:10;95921.00;;;18.50;100.00
3960;BME280;1994;48.640;8.894;2023-07-30T05:09:36;95923.25;;;18.56;100.00
3960;BME280;1994;48.640;8.894;2023-07-30T05:12:02;95922.16;;;18.44;100.00
3960;BME280;1994;48.640;8.894;2023-07-30T05:14:28;95920.41;;;18.39;100.00
3960;BME280;1994;48.640;8.894;2023-07-30T05:16:53;95914.09;;;18.40;100.00
3960;BME280;1994;48.640;8.894;2023-07-30T05:19:19;95913.81;;;18.42;100.00
3960;BME280;1994;48.640;8.894;2023-07-30T05:21:45;95918.25;;;18.23;100.00
3960;BME280;1994;48.640;8.894;2023-07-30T05:24:11;95909.91;;;18.21;100.00
3960;BME280;1994;48.640;8.894;2023-07-30T05:26:37;95912.38;;;18.31;100.00
3960;BME280;1994;48.640;8.894;2023-07-30T05:29:03;95918.13;;;18.33;100.00
3960;BME280;1994;48.640;8.894;2023-07-30T05:31:29;95920.25;;;18.31;100.00
3960;BME280;1994;48.640;8.894;2023-07-30T05:33:55;95922.94;;;18.26;100.00
3960;BME280;1994;48.640;8.894;2023-07-30T05:36:21;95918.47;;;18.26;100.00
3960;BME280;1994;48.640;8.894;2023-07-30T05:38:47;95924.16;;;18.33;100.00
3960;BME280;1994;48.640;8.894;2023-07-30T05:41:12;95920.25;;;18.31;100.00
3960;BME280;1994;48.640;8.894;2023-07-30T05:43:38;95925.94;;;18.38;100.00
3960;BME280;1994;48.640;8.894;2023-07-30T05:46:04;95919.59;;;18.39;100.00
3960;BME280;1994;48.640;8.894;2023-07-30T05:48:30;95919.53;;;18.44;100.00
3960;BME280;1994;48.640;8.894;2023-07-30T05:50:56;95915.28;;;18.48;100.00
3960;BME280;1994;48.640;8.894;2023-07-30T05:53:21;95922.06;;;18.49;100.00
3960;BME280;1994;48.640;8.894;2023-07-30T05:55:47;95918.78;;;18.57;100.00
3960;BME280;1994;48.640;8.894;2023-07-30T05:58:14;95921.19;;;18.53;100.00
3960;BME280;1994;48.640;8.894;2023-07-30T06:00:40;95925.59;;;18.58;100.00
3960;BME280;1994;48.640;8.894;2023-07-30T06:03:06;95923.16;;;18.29;100.00
3960;BME280;1994;48.640;8.894;2023-07-30T06:05:40;95925.75;;;18.48;100.00
3960;BME280;1994;48.640;8.894;2023-07-30T06:08:07;95918.56;;;18.53;100.00
3960;BME280;1994;48.640;8.894;2023-07-30T06:10:37;95914.53;;;18.61;100.00
3960;BME280;1994;48.640;8.894;2023-07-30T06:13:04;95914.16;;;18.67;100.00
3960;BME280;1994;48.640;8.894;2023-07-30T06:15:31;95921.66;;;18.74;100.00
3960;BME280;1994;48.640;8.894;2023-07-30T06:17:57;95924.19;;;18.92;100.00
3960;BME280;1994;48.640;8.894;2023-07-30T06:20:23;95922.13;;;18.76;100.00
3960;BME280;1994;48.640;8.894;2023-07-30T06:22:49;95935.19;;;18.81;100.00
3960;BME280;1994;48.640;8.894;2023-07-30T06:25:15;95937.28;;;18.79;100.00
3960;BME280;1994;48.640;8.894;2023-07-30T06:27:41;95923.34;;;18.97;100.00
3960;BME280;1994;48.640;8.894;2023-07-30T06:30:07;95924.72;;;19.08;100.00
3960;BME280;1994;48.640;8.894;2023-07-30T06:32:33;95927.16;;;19.18;100.00
3960;BME280;1994;48.640;8.894;2023-07-30T06:34:58;95932.63;;;19.35;100.00
3960;BME280;1994;48.640;8.894;2023-07-30T06:37:24;95940.09;;;19.28;100.00
3960;BME280;1994;48.640;8.894;2023-07-30T06:39:50;95937.38;;;19.33;100.00
3960;BME280;1994;48.640;8.894;2023-07-30T06:42:16;95944.75;;;19.17;100.00
3960;BME280;1994;48.640;8.894;2023-07-30T06:44:42;95953.50;;;19.13;100.00
3960;BME280;1994;48.640;8.894;2023-07-30T06:47:08;95962.28;;;19.22;100.00
3960;BME280;1994;48.640;8.894;2023-07-30T06:49:33;95969.16;;;19.18;100.00
3960;BME280;1994;48.640;8.894;2023-07-30T06:52:00;95959.72;;;19.17;100.00
3960;BME280;1994;48.640;8.894;2023-07-30T06:54:28;95969.31;;;19.26;100.00
3960;BME280;1994;48.640;8.894;2023-07-30T06:56:53;95972.97;;;19.12;100.00
3960;BME280;1994;48.640;8.894;2023-07-30T06:59:19;95973.34;;;19.19;100.00
3960;BME280;1994;48.640;8.894;2023-07-30T07:01:45;95983.53;;;19.07;100.00
3960;BME280;1994;48.640;8.894;2023-07-30T07:04:11;95981.56;;;18.99;100.00
3960;BME280;1994;48.640;8.894;2023-07-30T07:06:37;95990.03;;;18.96;100.00
3960;BME280;1994;48.640;8.894;2023-07-30T07:09:03;95989.22;;;18.82;100.00
3960;BME280;1994;48.640;8.894;2023-07-30T07:11:28;95991.75;;;18.87;100.00
3960;BME280;1994;48.640;8.894;2023-07-30T07:13:54;95986.75;;;19.04;100.00
3960;BME280;1994;48.640;8.894;2023-07-30T07:16:20;95985.97;;;19.17;100.00
3960;BME280;1994;48.640;8.894;2023-07-30T07:18:46;95991.41;;;19.07;100.00
3960;BME280;1994;48.640;8.894;2023-07-30T07:21:14;95988.47;;;18.95;100.00
3960;BME280;1994;48.640;8.894;2023-07-30T07:23:40;95998.88;;;19.00;100.00
3960;BME280;1994;48.640;8.894;2023-07-30T07:26:09;95994.91;;;19.02;100.00
3960;BME280;1994;48.640;8.894;2023-07-30T07:28:35;96004.03;;;19.05;100.00
3960;BME280;1994;48.640;8.894;2023-07-30T07:31:01;96006.59;;;19.10;100.00
3960;BME280;1994;48.640;8.894;2023-07-30T07:33:27;96013.97;;;19.40;100.00
3960;BME280;1994;48.640;8.894;2023-07-30T07:36:04;96004.31;;;19.49;100.00
3960;BME280;1994;48.640;8.894;2023-07-30T07:38:31;96004.91;;;19.46;100.00
3960;BME280;1994;48.640;8.894;2023-07-30T07:40:58;96006.25;;;19.30;100.00
3960;BME280;1994;48.640;8.894;2023-07-30T07:43:24;95999.47;;;19.29;100.00
3960;BME280;1994;48.640;8.894;2023-07-30T07:45:50;96002.28;;;19.46;100.00
3960;BME280;1994;48.640;8.894;2023-07-30T07:48:16;96000.91;;;19.35;100.00
3960;BME280;1994;48.640;8.894;2023-07-30T07:50:41;96009.97;;;19.56;100.00
3960;BME280;1994;48.640;8.894;2023-07-30T07:53:07;96001.00;;;19.84;100.00
3960;BME280;1994;48.640;8.894;2023-07-30T07:55:33;95997.47;;;20.02;99.73
3960;BME280;1994;48.640;8.894;2023-07-30T07:57:59;96005.66;;;20.14;96.19
3960;BME280;1994;48.640;8.894;2023-07-30T08:00:25;96007.91;;;20.42;97.15
3960;BME280;1994;48.640;8.894;2023-07-30T08:02:50;96008.97;;;20.77;96.24
3960;BME280;1994;48.640;8.894;2023-07-30T08:05:16;95995.63;;;20.95;94.15
3960;BME280;1994;48.640;8.894;2023-07-30T08:07:46;95992.19;;;21.17;91.40
3960;BME280;1994;48.640;8.894;2023-07-30T08:10:12;95999.69;;;21.32;91.46
3960;BME280;1994;48.640;8.894;2023-07-30T08:12:37;96009.41;;;21.62;89.43
3960;BME280;1994;48.640;8.894;2023-07-30T08:15:04;96012.63;;;21.81;86.46
3960;BME280;1994;48.640;8.894;2023-07-30T08:17:30;96011.72;;;21.94;88.86
3960;BME280;1994;48.640;8.894;2023-07-30T08:19:55;96007.38;;;21.98;88.38
3960;BME280;1994;48.640;8.894;2023-07-30T08:22:21;96008.75;;;21.48;87.03
3960;BME280;1994;48.640;8.894;2023-07-30T08:24:47;96005.34;;;21.56;86.70
3960;BME280;1994;48.640;8.894;2023-07-30T08:27:13;95989.59;;;21.25;86.01
3960;BME280;1994;48.640;8.894;2023-07-30T08:29:39;95996.53;;;21.52;86.74
3960;BME280;1994;48.640;8.894;2023-07-30T08:32:05;95998.06;;;21.92;84.61
3960;BME280;1994;48.640;8.894;2023-07-30T08:34:31;95995.00;;;22.15;84.32
3960;BME280;1994;48.640;8.894;2023-07-30T08:36:57;95994.56;;;22.30;81.51
3960;BME280;1994;48.640;8.894;2023-07-30T08:39:23;95998.63;;;22.53;80.78
3960;BME280;1994;48.640;8.894;2023-07-30T08:41:49;95989.16;;;22.61;80.13
3960;BME280;1994;48.640;8.894;2023-07-30T08:44:15;95995.97;;;22.62;78.41
3960;BME280;1994;48.640;8.894;2023-07-30T08:46:40;95995.97;;;22.79;81.36
3960;BME280;1994;48.640;8.894;2023-07-30T08:49:06;95995.97;;;22.79;77.08
3960;BME280;1994;48.640;8.894;2023-07-30T08:51:34;96005.59;;;22.58;79.83
3960;BME280;1994;48.640;8.894;2023-07-30T08:54:02;96007.13;;;22.25;77.75
3960;BME280;1994;48.640;8.894;2023-07-30T08:56:30;96013.13;;;22.08;82.34
3960;BME280;1994;48.640;8.894;2023-07-30T08:58:56;96010.03;;;22.06;83.13
3960;BME280;1994;48.640;8.894;2023-07-30T09:01:30;96011.44;;;22.04;84.47
3960;BME280;1994;48.640;8.894;2023-07-30T09:03:59;96015.56;;;21.49;83.75
3960;BME280;1994;48.640;8.894;2023-07-30T09:06:28;96018.66;;;21.51;85.80
3960;BME280;1994;48.640;8.894;2023-07-30T09:08:54;96030.69;;;21.35;85.79
3960;BME280;1994;48.640;8.894;2023-07-30T09:11:20;96027.88;;;21.31;84.65
3960;BME280;1994;48.640;8.894;2023-07-30T09:13:46;96033.47;;;21.30;86.36
3960;BME280;1994;48.640;8.894;2023-07-30T09:16:13;96030.59;;;21.18;85.60
3960;BME280;1994;48.640;8.894;2023-07-30T09:18:45;96035.53;;;21.11;85.61
3960;BME280;1994;48.640;8.894;2023-07-30T09:21:12;96041.66;;;20.98;85.92
3960;BME280;1994;48.640;8.894;2023-07-30T09:23:48;96040.31;;;20.87;86.47
3960;BME280;1994;48.640;8.894;2023-07-30T09:26:14;96039.41;;;20.69;87.03
3960;BME280;1994;48.640;8.894;2023-07-30T09:28:40;96026.88;;;20.75;87.68
3960;BME280;1994;48.640;8.894;2023-07-30T09:31:07;96045.19;;;20.80;86.13
3960;BME280;1994;48.640;8.894;2023-07-30T09:33:34;96042.44;;;20.85;86.21
3960;BME280;1994;48.640;8.894;2023-07-30T09:36:04;96047.34;;;20.91;84.66
3960;BME280;1994;48.640;8.894;2023-07-30T09:38:32;96041.66;;;20.98;83.62
3960;BME280;1994;48.640;8.894;2023-07-30T09:41:04;96050.03;;;21.00;83.03
3960;BME280;1994;48.640;8.894;2023-07-30T09:43:32;96050.16;;;20.95;82.31
3960;BME280;1994;48.640;8.894;2023-07-30T09:46:03;96057.81;;;21.05;84.71
3960;BME280;1994;48.640;8.894;2023-07-30T09:48:31;96059.22;;;21.33;81.25
3960;BME280;1994;48.640;8.894;2023-07-30T09:51:00;96060.69;;;21.78;80.25
3960;BME280;1994;48.640;8.894;2023-07-30T09:53:33;96072.88;;;21.96;77.56
3960;BME280;1994;48.640;8.894;2023-07-30T09:56:05;96064.31;;;22.72;74.17
3960;BME280;1994;48.640;8.894;2023-07-30T09:58:34;96075.50;;;22.86;71.38
3960;BME280;1994;48.640;8.894;2023-07-30T10:01:04;96067.34;;;22.23;71.10
3960;BME280;1994;48.640;8.894;2023-07-30T10:03:32;96068.03;;;22.71;70.77
3960;BME280;1994;48.640;8.894;2023-07-30T10:06:03;96077.81;;;23.13;69.84
3960;BME280;1994;48.640;8.894;2023-07-30T10:08:35;96085.81;;;23.67;66.65
3960;BME280;1994;48.640;8.894;2023-07-30T10:11:05;96071.41;;;23.85;66.87
3960;BME280;1994;48.640;8.894;2023-07-30T10:13:33;96077.78;;;23.93;64.89
3960;BME280;1994;48.640;8.894;2023-07-30T10:15:59;96071.00;;;23.75;64.87
3960;BME280;1994;48.640;8.894;2023-07-30T10:18:42;96070.47;;;23.81;63.73
3960;BME280;1994;48.640;8.894;2023-07-30T10:21:11;96069.31;;;24.08;63.46
3960;BME280;1994;48.640;8.894;2023-07-30T10:26:28;96067.03;;;23.98;63.09
3960;BME280;1994;48.640;8.894;2023-07-30T10:29:17;96073.81;;;23.70;65.19
3960;BME280;1994;48.640;8.894;2023-07-30T10:31:56;96071.09;;;23.87;59.95
3960;BME280;1994;48.640;8.894;2023-07-30T10:34:27;96074.97;;;23.98;63.30
3960;BME280;1994;48.640;8.894;2023-07-30T10:37:08;96079.50;;;24.18;61.51
3960;BME280;1994;48.640;8.894;2023-07-30T10:39:34;96076.88;;;23.89;61.19
3960;BME280;1994;48.640;8.894;2023-07-30T10:42:01;96075.13;;;24.22;58.43
3960;BME280;1994;48.640;8.894;2023-07-30T10:44:28;96086.00;;;24.58;58.02
3960;BME280;1994;48.640;8.894;2023-07-30T10:46:59;96066.94;;;24.15;54.99
3960;BME280;1994;48.640;8.894;2023-07-30T10:49:26;96083.41;;;24.49;56.69
3960;BME280;1994;48.640;8.894;2023-07-30T10:51:56;96078.41;;;23.90;56.89
3960;BME280;1994;48.640;8.894;2023-07-30T10:54:25;96070.94;;;23.92;58.09
3960;BME280;1994;48.640;8.894;2023-07-30T10:56:51;96073.41;;;23.97;58.30
3960;BME280;1994;48.640;8.894;2023-07-30T10:59:18;96071.69;;;24.30;57.04
3960;BME280;1994;48.640;8.894;2023-07-30T11:01:45;96080.72;;;24.58;57.20
3960;BME280;1994;48.640;8.894;2023-07-30T11:04:17;96087.09;;;24.57;57.82
3960;BME280;1994;48.640;8.894;2023-07-30T11:06:48;96081.50;;;24.50;56.96
3960;BME280;1994;48.640;8.894;2023-07-30T11:09:23;96065.13;;;24.77;56.57
3960;BME280;1994;48.640;8.894;2023-07-30T11:11:50;96072.25;;;24.85;56.39
3960;BME280;1994;48.640;8.894;2023-07-30T11:14:26;96068.50;;;24.86;57.15
3960;BME280;1994;48.640;8.894;2023-07-30T11:16:56;96078.56;;;24.72;55.66
3960;BME280;1994;48.640;8.894;2023-07-30T11:19:27;96067.16;;;24.30;53.68
3960;BME280;1994;48.640;8.894;2023-07-30T11:21:55;96072.31;;;23.98;56.54
3960;BME280;1994;48.640;8.894;2023-07-30T11:24:22;96075.69;;;24.36;55.84
3960;BME280;1994;48.640;8.894;2023-07-30T11:27:00;96067.56;;;24.41;53.74
3960;BME280;1994;48.640;8.894;2023-07-30T11:29:26;96068.88;;;24.76;53.17
3960;BME280;1994;48.640;8.894;2023-07-30T11:31:57;96075.47;;;24.90;52.92
3960;BME280;1994;48.640;8.894;2023-07-30T11:34:26;96061.19;;;25.36;54.30
3960;BME280;1994;48.640;8.894;2023-07-30T11:36:53;96079.97;;;25.31;53.38
3960;BME280;1994;48.640;8.894;2023-07-30T11:39:19;96080.19;;;25.38;49.85
3960;BME280;1994;48.640;8.894;2023-07-30T11:41:46;96077.72;;;25.65;53.16
3960;BME280;1994;48.640;8.894;2023-07-30T11:44:41;96087.81;;;25.84;51.34
3960;BME280;1994;48.640;8.894;2023-07-30T11:47:07;96076.72;;;25.70;51.72
3960;BME280;1994;48.640;8.894;2023-07-30T11:49:35;96080.06;;;25.02;51.36
3960;BME280;1994;48.640;8.894;2023-07-30T11:52:08;96089.16;;;24.72;53.95
3960;BME280;1994;48.640;8.894;2023-07-30T11:54:34;96092.56;;;25.13;51.94
3960;BME280;1994;48.640;8.894;2023-07-30T11:57:00;96081.09;;;25.42;50.85
3960;BME280;1994;48.640;8.894;2023-07-30T11:59:26;96086.22;;;25.59;50.84
3960;BME280;1994;48.640;8.894;2023-07-30T12:01:52;96091.47;;;25.35;50.70
3960;BME280;1994;48.640;8.894;2023-07-30T12:04:18;96087.00;;;25.59;51.33
3960;BME280;1994;48.640;8.894;2023-07-30T12:09:20;96080.72;;;25.76;49.91
3960;BME280;1994;48.640;8.894;2023-07-30T12:11:57;96099.16;;;25.60;52.11
3960;BME280;1994;48.640;8.894;2023-07-30T12:14:42;96101.06;;;25.27;54.09
3960;BME280;1994;48.640;8.894;2023-07-30T12:17:08;96096.16;;;24.97;54.74
3960;BME280;1994;48.640;8.894;2023-07-30T12:19:34;96112.66;;;24.53;56.23
3960;BME280;1994;48.640;8.894;2023-07-30T12:22:02;96107.59;;;24.39;56.77
3960;BME280;1994;48.640;8.894;2023-07-30T12:24:28;96102.72;;;24.21;56.72
3960;BME280;1994;48.640;8.894;2023-07-30T12:26:53;96112.34;;;24.25;56.76
3960;BME280;1994;48.640;8.894;2023-07-30T12:29:19;96104.47;;;24.08;57.45
3960;BME280;1994;48.640;8.894;2023-07-30T12:31:45;96109.81;;;24.00;57.62
3960;BME280;1994;48.640;8.894;2023-07-30T12:34:12;96103.59;;;23.96;58.38
3960;BME280;1994;48.640;8.894;2023-07-30T12:36:38;96111.28;;;24.18;57.71
3960;BME280;1994;48.640;8.894;2023-07-30T12:39:04;96108.91;;;24.54;55.99
3960;BME280;1994;48.640;8.894;2023-07-30T12:41:29;96113.47;;;24.45;55.75
3960;BME280;1994;48.640;8.894;2023-07-30T12:43:56;96119.41;;;24.42;55.40
3960;BME280;1994;48.640;8.894;2023-07-30T12:46:23;96122.00;;;24.59;56.34
3960;BME280;1994;48.640;8.894;2023-07-30T12:48:51;96123.69;;;24.84;55.67
3960;BME280;1994;48.640;8.894;2023-07-30T12:51:17;96119.66;;;25.19;53.53
3960;BME280;1994;48.640;8.894;2023-07-30T12:53:43;96119.91;;;25.46;52.25
3960;BME280;1994;48.640;8.894;2023-07-30T12:56:08;96125.16;;;25.67;51.68
3960;BME280;1994;48.640;8.894;2023-07-30T12:58:34;96128.91;;;25.66;51.32
3960;BME280;1994;48.640;8.894;2023-07-30T13:01:02;96137.19;;;25.64;50.85
3960;BME280;1994;48.640;8.894;2023-07-30T13:03:28;96136.47;;;25.88;50.72
3960;BME280;1994;48.640;8.894;2023-07-30T13:05:54;96128.84;;;25.42;50.95
3960;BME280;1994;48.640;8.894;2023-07-30T13:08:20;96130.88;;;25.57;50.13
3960;BME280;1994;48.640;8.894;2023-07-30T13:10:46;96138.69;;;24.80;52.36
3960;BME280;1994;48.640;8.894;2023-07-30T13:13:12;96150.28;;;24.67;53.33
3960;BME280;1994;48.640;8.894;2023-07-30T13:15:38;96146.09;;;24.37;55.02
3960;BME280;1994;48.640;8.894;2023-07-30T13:18:03;96149.19;;;24.39;54.00
3960;BME280;1994;48.640;8.894;2023-07-30T13:20:29;96147.56;;;24.17;55.40